createdAt,value
2018-06-01T04:10:24.192Z,90
2018-06-01T04:10:49.797Z,90
2018-06-01T04:11:15.300Z,90
2018-06-01T04:11:40.782Z,90
2018-06-01T04:12:06.280Z,90
2018-06-01T04:12:31.865Z,95
2018-06-01T04:12:57.287Z,95
2018-06-01T04:13:22.814Z,95
2018-06-01T04:13:48.279Z,95
2018-06-01T04:14:13.742Z,95
2018-06-01T04:14:39.181Z,95
2018-06-01T04:15:04.629Z,95
2018-06-01T04:15:30.155Z,95
2018-06-01T04:15:55.792Z,100
2018-06-01T04:16:21.215Z,100
2018-06-01T04:16:46.727Z,100
2018-06-01T04:17:12.210Z,100
2018-06-01T04:17:37.704Z,105
2018-06-01T04:18:03.160Z,105
2018-06-01T04:18:28.651Z,105
2018-06-01T04:18:54.168Z,110
2018-06-01T04:19:19.616Z,110
2018-06-01T04:19:45.152Z,110
2018-06-01T04:20:10.609Z,115
2018-06-01T04:20:36.040Z,115
2018-06-01T04:21:01.618Z,115
2018-06-01T04:21:27.117Z,120
2018-06-01T04:21:52.646Z,120
2018-06-01T04:22:18.148Z,120
2018-06-01T04:22:43.663Z,125
2018-06-01T04:23:09.133Z,125
2018-06-01T04:23:34.656Z,125
2018-06-01T04:24:00.113Z,125
2018-06-01T04:24:25.611Z,130
2018-06-01T04:24:51.111Z,135
2018-06-01T04:25:16.593Z,135
2018-06-01T04:25:42.039Z,140
2018-06-01T04:26:07.505Z,145
2018-06-01T04:26:33.004Z,145
2018-06-01T04:26:58.454Z,150
2018-06-01T04:27:24.000Z,150
2018-06-01T04:27:49.436Z,155
2018-06-01T04:28:14.976Z,155
2018-06-01T04:28:40.446Z,155
2018-06-01T04:29:05.910Z,160
2018-06-01T04:29:32.053Z,160
2018-06-01T04:29:57.460Z,160
2018-06-01T04:30:22.918Z,160
2018-06-01T04:30:48.423Z,160
2018-06-01T04:31:13.940Z,160
2018-06-01T04:31:39.416Z,155
2018-06-01T04:32:04.915Z,155
2018-06-01T04:32:30.355Z,155
2018-06-01T04:32:55.813Z,155
2018-06-01T04:33:21.273Z,155
2018-06-01T04:33:46.723Z,150
2018-06-01T04:34:12.238Z,145
2018-06-01T04:34:37.725Z,145
2018-06-01T04:35:03.261Z,140
2018-06-01T04:35:28.697Z,140
2018-06-01T04:35:54.160Z,140
2018-06-01T04:36:19.655Z,140
2018-06-01T04:36:45.157Z,135
2018-06-01T04:37:10.600Z,135
2018-06-01T04:37:36.042Z,135
2018-06-01T04:38:01.495Z,135
2018-06-01T04:38:26.981Z,140
2018-06-01T04:38:52.473Z,140
2018-06-01T04:39:18.176Z,140
2018-06-01T04:39:43.626Z,140
2018-06-01T04:40:09.094Z,145
2018-06-01T04:40:34.659Z,145
2018-06-01T04:41:00.064Z,150
2018-06-01T04:41:25.615Z,150
2018-06-01T04:41:51.070Z,150
2018-06-01T04:42:16.560Z,155
2018-06-01T04:42:42.039Z,160
2018-06-01T04:43:07.498Z,165
2018-06-01T04:43:32.964Z,170
2018-06-01T04:43:58.418Z,175
2018-06-01T04:44:23.936Z,180
2018-06-01T04:44:49.490Z,185
2018-06-01T04:45:14.955Z,185
2018-06-01T04:45:40.413Z,185
2018-06-01T04:46:05.861Z,185
2018-06-01T04:46:31.342Z,185
2018-06-01T04:46:56.788Z,185
2018-06-01T04:47:22.250Z,185
2018-06-01T04:47:47.741Z,190
2018-06-01T04:48:13.196Z,185
2018-06-01T04:48:38.698Z,185
2018-06-01T04:49:04.179Z,185
2018-06-01T04:49:29.683Z,185
2018-06-01T04:49:55.107Z,185
2018-06-01T04:50:20.594Z,185
2018-06-01T04:50:46.090Z,185
2018-06-01T04:51:11.607Z,190
2018-06-01T04:51:37.177Z,190
2018-06-01T04:52:02.652Z,190
2018-06-01T04:52:28.120Z,190
2018-06-01T04:52:53.685Z,190
2018-06-01T04:53:19.113Z,190
2018-06-01T04:53:44.615Z,195
2018-06-01T04:54:10.125Z,195
2018-06-01T04:54:35.634Z,190
2018-06-01T04:55:01.135Z,190
2018-06-01T04:55:26.598Z,190
2018-06-01T04:55:52.145Z,190
2018-06-01T04:56:17.620Z,190
2018-06-01T04:56:43.101Z,195
2018-06-01T04:57:08.599Z,195
2018-06-01T04:57:34.103Z,180
2018-06-01T04:57:59.584Z,195
2018-06-01T04:58:25.047Z,195
2018-06-01T04:58:50.521Z,205
2018-06-01T04:59:16.002Z,205
2018-06-01T04:59:41.487Z,210
2018-06-01T05:00:06.985Z,205
2018-06-01T05:00:32.469Z,210
2018-06-01T05:00:57.954Z,215
2018-06-01T05:01:23.444Z,210
2018-06-01T05:01:48.949Z,210
2018-06-01T05:02:14.478Z,205
2018-06-01T05:02:39.978Z,205
2018-06-01T05:03:05.465Z,200
2018-06-01T05:03:30.989Z,200
2018-06-01T05:03:56.489Z,200
2018-06-01T05:04:21.982Z,200
2018-06-01T05:04:47.464Z,200
2018-06-01T05:05:12.925Z,195
2018-06-01T05:05:38.424Z,195
2018-06-01T05:06:03.883Z,195
2018-06-01T05:06:29.384Z,195
2018-06-01T05:06:54.888Z,195
2018-06-01T05:07:20.382Z,200
2018-06-01T05:07:45.876Z,200
2018-06-01T05:08:11.384Z,200
2018-06-01T05:08:36.871Z,200
2018-06-01T05:09:02.373Z,195
2018-06-01T05:09:27.873Z,195
2018-06-01T05:09:53.367Z,200
2018-06-01T05:10:18.864Z,195
2018-06-01T05:10:44.357Z,195
2018-06-01T05:11:09.855Z,190
2018-06-01T05:11:35.377Z,185
2018-06-01T05:12:00.839Z,180
2018-06-01T05:12:26.405Z,185
2018-06-01T05:12:51.878Z,180
2018-06-01T05:13:17.379Z,185
2018-06-01T05:13:42.841Z,185
2018-06-01T05:14:08.308Z,190
2018-06-01T05:14:33.791Z,190
2018-06-01T05:14:59.271Z,185
2018-06-01T05:15:24.728Z,185
2018-06-01T05:15:50.186Z,190
2018-06-01T05:16:15.667Z,185
2018-06-01T05:16:41.160Z,185
2018-06-01T05:17:06.587Z,195
2018-06-01T05:17:32.566Z,190
2018-06-01T05:17:57.864Z,190
2018-06-01T05:18:23.393Z,195
2018-06-01T05:18:48.974Z,195
2018-06-01T05:19:14.491Z,195
2018-06-01T05:19:39.976Z,195
2018-06-01T05:20:05.450Z,195
2018-06-01T05:20:30.888Z,190
2018-06-01T05:20:56.376Z,185
2018-06-01T05:21:21.844Z,180
2018-06-01T05:21:47.358Z,180
2018-06-01T05:22:12.868Z,180
2018-06-01T05:22:38.358Z,180
2018-06-01T05:23:03.811Z,185
2018-06-01T05:23:29.310Z,185
2018-06-01T05:23:54.853Z,185
2018-06-01T05:24:20.355Z,180
2018-06-01T05:24:45.867Z,180
2018-06-01T05:25:11.363Z,180
2018-06-01T05:25:36.892Z,180
2018-06-01T05:26:02.397Z,180
2018-06-01T05:26:27.942Z,180
2018-06-01T05:26:53.401Z,180
2018-06-01T05:27:18.971Z,185
2018-06-01T05:27:44.415Z,185
2018-06-01T05:28:09.826Z,185
2018-06-01T05:28:35.289Z,185
2018-06-01T05:29:00.817Z,185
2018-06-01T05:29:26.328Z,185
2018-06-01T05:29:51.876Z,185
2018-06-01T05:30:17.355Z,180
2018-06-01T05:30:42.888Z,180
2018-06-01T05:31:08.372Z,180
2018-06-01T05:31:33.843Z,180
2018-06-01T05:31:59.335Z,180
2018-06-01T05:32:24.930Z,180
2018-06-01T05:32:50.558Z,180
2018-06-01T05:33:16.062Z,180
2018-06-01T05:33:41.552Z,185
2018-06-01T05:34:07.058Z,190
2018-06-01T05:34:32.540Z,185
2018-06-01T05:34:58.080Z,185
2018-06-01T05:35:23.667Z,185
2018-06-01T05:35:49.074Z,185
2018-06-01T05:36:14.565Z,190
2018-06-01T05:36:40.074Z,190
2018-06-01T05:37:05.577Z,190
2018-06-01T05:37:31.075Z,190
2018-06-01T05:37:56.571Z,190
2018-06-01T05:38:22.064Z,195
2018-06-01T05:38:47.755Z,190
2018-06-01T05:39:13.063Z,190
2018-06-01T05:39:38.562Z,190
2018-06-01T05:40:03.984Z,190
2018-06-01T05:40:29.466Z,190
2018-06-01T05:40:54.945Z,190
2018-06-01T05:41:20.434Z,190
2018-06-01T05:42:49.628Z,190
2018-06-01T05:43:15.122Z,190
2018-06-01T05:43:40.627Z,190
2018-06-01T05:44:06.147Z,190
2018-06-01T05:44:31.676Z,190
2018-06-01T05:44:57.149Z,190
2018-06-01T05:45:22.636Z,185
2018-06-01T05:45:48.213Z,185
2018-06-01T05:46:13.667Z,185
2018-06-01T05:46:39.161Z,180
2018-06-01T05:47:04.638Z,180
2018-06-01T05:47:30.141Z,180
2018-06-01T05:47:55.614Z,180
2018-06-01T05:48:21.113Z,180
2018-06-01T05:48:46.552Z,180
2018-06-01T05:49:12.015Z,180
2018-06-01T05:49:37.533Z,180
2018-06-01T05:50:02.947Z,180
2018-06-01T05:50:28.476Z,180
2018-06-01T05:50:53.886Z,180
2018-06-01T05:51:19.416Z,185
2018-06-01T05:51:44.904Z,185
2018-06-01T05:52:10.467Z,185
2018-06-01T05:52:35.983Z,190
2018-06-01T05:53:01.460Z,190
2018-06-01T05:53:27.015Z,195
2018-06-01T05:53:52.720Z,195
2018-06-01T05:54:18.070Z,200
2018-06-01T05:54:43.582Z,200
2018-06-01T05:55:09.091Z,205
2018-06-01T05:55:34.582Z,210
2018-06-01T05:56:00.061Z,210
2018-06-01T05:56:25.700Z,215
2018-06-01T05:57:54.781Z,220
2018-06-01T05:58:20.278Z,220
2018-06-01T05:58:45.784Z,220
2018-06-01T05:59:11.316Z,220
2018-06-01T05:59:36.820Z,220
2018-06-01T06:00:02.460Z,220
2018-06-01T06:00:27.926Z,220
2018-06-01T06:00:53.507Z,225
2018-06-01T06:01:18.912Z,225
2018-06-01T06:01:44.376Z,225
2018-06-01T06:02:09.876Z,230
2018-06-01T06:02:35.384Z,230
2018-06-01T06:03:00.911Z,235
2018-06-01T06:04:30.017Z,240
2018-06-01T06:04:55.501Z,245
2018-06-01T06:05:21.024Z,245
2018-06-01T06:05:46.529Z,255
2018-06-01T06:06:12.035Z,265
2018-06-01T06:06:37.540Z,270
2018-06-01T06:07:03.025Z,280
2018-06-01T06:07:28.515Z,290
2018-06-01T06:07:54.002Z,305
2018-06-01T06:08:19.556Z,310
2018-06-01T06:08:45.083Z,320
2018-06-01T06:09:10.643Z,335
2018-06-01T06:09:36.150Z,335
2018-06-01T06:10:01.657Z,345
2018-06-01T06:10:27.183Z,360
2018-06-01T06:10:52.694Z,360
2018-06-01T06:11:18.179Z,350
2018-06-01T06:11:43.668Z,350
2018-06-01T06:12:09.110Z,370
2018-06-01T06:12:34.560Z,360
2018-06-01T06:13:00.120Z,365
2018-06-01T06:13:25.642Z,390
2018-06-01T06:13:51.193Z,400
2018-06-01T06:14:16.679Z,395
2018-06-01T06:14:42.159Z,395
2018-06-01T06:16:06.183Z,390
2018-06-01T06:16:31.697Z,380
2018-06-01T06:16:57.187Z,375
2018-06-01T06:17:22.699Z,370
2018-06-01T06:17:48.204Z,370
2018-06-01T06:18:13.687Z,370
2018-06-01T06:18:39.163Z,360
2018-06-01T06:19:04.650Z,350
2018-06-01T06:19:30.175Z,340
2018-06-01T06:19:55.683Z,340
2018-06-01T06:20:21.135Z,335
2018-06-01T06:20:46.632Z,330
2018-06-01T06:21:12.149Z,325
2018-06-01T06:21:37.612Z,320
2018-06-01T06:22:03.191Z,320
2018-06-01T06:22:28.689Z,315
2018-06-01T06:22:54.152Z,315
2018-06-01T06:23:19.658Z,310
2018-06-01T06:23:45.130Z,315
2018-06-01T06:24:10.620Z,315
2018-06-01T06:24:36.147Z,320
2018-06-01T06:25:01.645Z,335
2018-06-01T06:25:27.146Z,345
2018-06-01T06:25:52.624Z,365
2018-06-01T06:26:18.123Z,395
2018-06-01T06:26:43.646Z,425
2018-06-01T06:27:09.152Z,440
2018-06-01T06:27:34.658Z,465
2018-06-01T06:28:00.169Z,485
2018-06-01T06:28:25.674Z,460
2018-06-01T06:28:51.168Z,510
2018-06-01T06:29:16.643Z,570
2018-06-01T06:29:42.133Z,540
2018-06-01T06:30:07.682Z,555
2018-06-01T06:30:33.191Z,545
2018-06-01T06:30:58.684Z,535
2018-06-01T06:31:24.204Z,525
2018-06-01T06:31:49.706Z,525
2018-06-01T06:32:15.206Z,610
2018-06-01T06:32:40.732Z,625
2018-06-01T06:33:06.218Z,570
2018-06-01T06:33:31.694Z,550
2018-06-01T06:33:57.181Z,580
2018-06-01T06:34:22.701Z,620
2018-06-01T06:34:48.186Z,635
2018-06-01T06:35:13.788Z,640
2018-06-01T06:35:39.287Z,640
2018-06-01T06:36:04.783Z,640
2018-06-01T06:36:30.274Z,635
2018-06-01T06:36:55.775Z,645
2018-06-01T06:37:21.276Z,660
2018-06-01T06:37:46.854Z,680
2018-06-01T06:38:12.282Z,700
2018-06-01T06:38:37.761Z,710
2018-06-01T06:39:03.269Z,710
2018-06-01T06:39:28.828Z,715
2018-06-01T06:39:54.317Z,720
2018-06-01T06:40:19.835Z,730
2018-06-01T06:40:45.325Z,725
2018-06-01T06:41:10.828Z,735
2018-06-01T06:41:36.327Z,730
2018-06-01T06:42:01.802Z,720
2018-06-01T06:42:27.370Z,720
2018-06-01T06:42:52.876Z,705
2018-06-01T06:43:18.349Z,695
2018-06-01T06:43:43.938Z,705
2018-06-01T06:44:09.555Z,695
2018-06-01T06:44:35.021Z,700
2018-06-01T06:45:00.493Z,705
2018-06-01T06:45:25.987Z,700
2018-06-01T06:45:51.563Z,715
2018-06-01T06:46:17.061Z,725
2018-06-01T06:46:42.573Z,720
2018-06-01T06:47:08.049Z,705
2018-06-01T06:47:33.544Z,690
2018-06-01T06:47:59.068Z,670
2018-06-01T06:48:24.535Z,670
2018-06-01T06:48:50.043Z,670
2018-06-01T06:49:15.524Z,660
2018-06-01T06:49:41.172Z,660
2018-06-01T06:50:06.551Z,675
2018-06-01T06:50:32.025Z,680
2018-06-01T06:50:57.520Z,680
2018-06-01T06:51:23.000Z,670
2018-06-01T06:51:48.432Z,655
2018-06-01T06:52:13.970Z,625
2018-06-01T06:52:39.444Z,590
2018-06-01T06:53:04.917Z,545
2018-06-01T06:53:30.443Z,520
2018-06-01T06:53:56.427Z,495
2018-06-01T06:54:21.931Z,470
2018-06-01T06:54:47.561Z,465
2018-06-01T06:55:12.979Z,460
2018-06-01T06:55:38.380Z,455
2018-06-01T06:56:04.061Z,460
2018-06-01T06:56:29.456Z,460
2018-06-01T06:56:55.056Z,455
2018-06-01T06:57:20.452Z,455
2018-06-01T06:57:46.119Z,455
2018-06-01T06:58:11.655Z,455
2018-06-01T06:58:37.137Z,455
2018-06-01T06:59:02.627Z,455
2018-06-01T06:59:28.254Z,455
2018-06-01T06:59:53.863Z,460
2018-06-01T07:00:19.371Z,460
2018-06-01T07:00:44.827Z,455
2018-06-01T07:01:10.396Z,455
2018-06-01T07:01:35.796Z,450
2018-06-01T07:02:01.444Z,450
2018-06-01T07:02:26.784Z,450
2018-06-01T07:02:52.302Z,455
2018-06-01T07:03:17.763Z,455
2018-06-01T07:03:43.371Z,455
2018-06-01T07:04:08.887Z,455
2018-06-01T07:04:34.557Z,450
2018-06-01T07:05:00.258Z,445
2018-06-01T07:05:25.871Z,430
2018-06-01T07:05:51.335Z,425
2018-06-01T07:06:16.922Z,415
2018-06-01T07:06:42.528Z,410
2018-06-01T07:07:08.171Z,410
2018-06-01T07:07:33.600Z,410
2018-06-01T07:07:59.089Z,415
2018-06-01T07:08:24.567Z,405
2018-06-01T07:08:50.038Z,390
2018-06-01T07:09:15.577Z,370
2018-06-01T07:09:41.145Z,365
2018-06-01T07:10:06.517Z,365
2018-06-01T07:10:32.110Z,375
2018-06-01T07:10:57.526Z,370
2018-06-01T07:11:22.947Z,370
2018-06-01T07:11:48.619Z,385
2018-06-01T07:12:14.138Z,390
2018-06-01T07:12:39.624Z,395
2018-06-01T07:13:05.190Z,415
2018-06-01T07:13:30.949Z,415
2018-06-01T07:13:56.509Z,420
2018-06-01T07:14:21.972Z,420
2018-06-01T07:14:47.554Z,420
2018-06-01T07:15:13.278Z,415
2018-06-01T07:15:38.815Z,410
2018-06-01T07:16:04.425Z,400
2018-06-01T07:16:29.941Z,390
2018-06-01T07:16:55.929Z,380
2018-06-01T07:17:21.673Z,375
2018-06-01T07:17:47.710Z,375
2018-06-01T07:18:13.242Z,375
2018-06-01T07:18:38.666Z,375
2018-06-01T07:19:04.172Z,370
2018-06-01T07:19:29.977Z,360
2018-06-01T07:19:55.513Z,355
2018-06-01T07:20:21.012Z,330
2018-06-01T07:20:46.552Z,310
2018-06-01T07:21:12.043Z,295
2018-06-01T07:21:37.508Z,285
2018-06-01T07:22:03.027Z,270
2018-06-01T07:22:28.553Z,260
2018-06-01T07:22:53.936Z,250
2018-06-01T07:23:19.408Z,240
2018-06-01T07:23:44.883Z,235
2018-06-01T07:24:10.374Z,230
2018-06-01T07:24:35.843Z,230
2018-06-01T07:25:01.374Z,225
2018-06-01T07:25:26.893Z,225
2018-06-01T07:25:52.339Z,225
2018-06-01T07:26:17.828Z,225
2018-06-01T07:26:43.289Z,225
2018-06-01T07:27:08.788Z,225
2018-06-01T07:27:34.298Z,225
2018-06-01T07:27:59.801Z,225
2018-06-01T07:28:25.305Z,225
2018-06-01T07:28:50.809Z,225
2018-06-01T07:29:16.210Z,225
2018-06-01T07:29:41.717Z,230
2018-06-01T07:30:07.222Z,225
2018-06-01T07:30:32.691Z,225
2018-06-01T07:30:58.200Z,225
2018-06-01T07:31:23.685Z,225
2018-06-01T07:31:49.198Z,230
2018-06-01T07:32:14.624Z,225
2018-06-01T07:32:40.064Z,225
2018-06-01T07:33:05.521Z,225
2018-06-01T07:33:31.054Z,225
2018-06-01T07:33:56.508Z,225
2018-06-01T07:34:21.987Z,225
2018-06-01T07:34:47.478Z,225
2018-06-01T07:35:12.942Z,225
2018-06-01T07:35:38.475Z,225
2018-06-01T07:36:03.921Z,225
2018-06-01T07:36:29.441Z,225
2018-06-01T07:36:54.885Z,225
2018-06-01T07:37:20.472Z,225
2018-06-01T07:37:45.863Z,225
2018-06-01T07:38:11.367Z,225
2018-06-01T07:38:36.905Z,220
2018-06-01T07:39:02.312Z,220
2018-06-01T07:39:27.777Z,220
2018-06-01T07:39:53.654Z,225
2018-06-01T07:40:19.179Z,220
2018-06-01T07:40:44.725Z,215
2018-06-01T07:41:10.133Z,210
2018-06-01T07:41:35.654Z,210
2018-06-01T07:42:01.160Z,205
2018-06-01T07:42:26.848Z,200
2018-06-01T07:42:52.355Z,190
2018-06-01T07:43:17.905Z,185
2018-06-01T07:43:43.452Z,180
2018-06-01T07:44:09.005Z,175
2018-06-01T07:44:34.519Z,175
2018-06-01T07:45:00.026Z,170
2018-06-01T07:45:25.593Z,165
2018-06-01T07:45:51.103Z,160
2018-06-01T07:46:16.646Z,155
2018-06-01T07:46:42.143Z,150
2018-06-01T07:47:07.667Z,150
2018-06-01T07:47:33.187Z,145
2018-06-01T07:47:58.696Z,140
2018-06-01T07:48:24.218Z,140
2018-06-01T07:48:49.716Z,135
2018-06-01T07:49:15.199Z,135
2018-06-01T07:49:40.714Z,130
2018-06-01T07:50:06.238Z,130
2018-06-01T07:50:31.713Z,125
2018-06-01T07:50:57.194Z,125
2018-06-01T07:51:22.657Z,125
2018-06-01T07:51:48.160Z,120
2018-06-01T07:53:17.291Z,115
2018-06-01T07:53:42.781Z,115
2018-06-01T07:54:08.293Z,115
2018-06-01T07:54:33.766Z,110
2018-06-01T07:54:59.209Z,110
2018-06-01T07:55:24.714Z,105
2018-06-01T07:55:50.207Z,100
2018-06-01T07:56:15.663Z,100
2018-06-01T07:56:41.158Z,100
2018-06-01T07:57:06.599Z,95
2018-06-01T07:57:32.053Z,95
2018-06-01T07:57:57.517Z,90
2018-06-01T07:58:22.977Z,85
2018-06-01T07:58:48.461Z,80
2018-06-01T07:59:13.911Z,75
2018-06-01T07:59:39.451Z,70
2018-06-01T08:00:04.939Z,65
2018-06-01T08:00:30.399Z,60
2018-06-01T08:00:55.885Z,60
2018-06-01T08:01:21.355Z,55
2018-06-01T08:01:46.817Z,55
2018-06-01T08:02:12.307Z,55
2018-06-01T08:02:37.836Z,55
2018-06-01T08:03:03.292Z,55
2018-06-01T08:03:28.797Z,55
2018-06-01T08:03:54.289Z,55
2018-06-01T08:04:19.770Z,55
2018-06-01T08:04:45.251Z,55
2018-06-01T08:05:10.727Z,50
2018-06-01T08:05:36.223Z,50
2018-06-01T08:06:01.798Z,55
2018-06-01T08:06:27.242Z,60
2018-06-01T08:06:52.722Z,65
2018-06-01T08:07:18.163Z,70
2018-06-01T08:07:43.800Z,65
2018-06-01T08:08:09.371Z,55
2018-06-01T08:08:34.831Z,55
2018-06-01T08:09:00.312Z,60
2018-06-01T08:09:25.837Z,65
2018-06-01T08:09:51.285Z,65
2018-06-01T08:10:16.789Z,70
2018-06-01T08:10:42.269Z,70
2018-06-01T08:11:07.721Z,70
2018-06-01T08:11:33.217Z,70
2018-06-01T08:11:58.689Z,70
2018-06-01T08:12:24.160Z,70
2018-06-01T08:12:49.601Z,70
2018-06-01T08:13:15.086Z,70
2018-06-01T08:13:40.652Z,70
2018-06-01T08:14:06.157Z,70
2018-06-01T08:14:32.008Z,65
2018-06-01T08:14:57.421Z,65
2018-06-01T08:15:23.409Z,60
2018-06-01T08:15:49.040Z,55
2018-06-01T08:16:14.517Z,50
2018-06-01T08:16:40.056Z,45
2018-06-01T08:17:05.531Z,40
2018-06-01T08:17:31.350Z,40
2018-06-01T08:17:57.102Z,35
2018-06-01T08:18:22.597Z,35
2018-06-01T08:18:48.103Z,35
2018-06-01T08:19:13.503Z,40
2018-06-01T08:19:39.102Z,40
2018-06-01T08:20:04.591Z,45
2018-06-01T08:20:30.218Z,50
2018-06-01T08:20:55.571Z,50
2018-06-01T08:21:21.071Z,55
2018-06-01T08:21:46.708Z,55
2018-06-01T08:22:12.662Z,55
2018-06-01T08:22:38.401Z,55
2018-06-01T08:23:03.960Z,55
2018-06-01T08:23:29.614Z,55
2018-06-01T08:23:55.252Z,60
2018-06-01T08:24:20.776Z,60
2018-06-01T08:24:46.312Z,65
2018-06-01T08:25:11.714Z,70
2018-06-01T08:25:37.282Z,75
2018-06-01T08:26:02.735Z,80
2018-06-01T08:26:28.273Z,85
2018-06-01T08:26:53.827Z,90
2018-06-01T08:27:19.404Z,95
2018-06-01T08:27:44.982Z,95
2018-06-01T08:28:11.288Z,100
2018-06-01T08:28:36.837Z,100
2018-06-01T08:29:02.813Z,100
2018-06-01T08:29:28.492Z,100
2018-06-01T08:29:53.876Z,100
2018-06-01T08:30:19.302Z,100
2018-06-01T08:30:44.919Z,100
2018-06-01T08:31:10.590Z,100
2018-06-01T08:31:36.336Z,100
2018-06-01T08:32:01.922Z,100
2018-06-01T08:32:27.476Z,100
2018-06-01T08:32:52.965Z,100
2018-06-01T08:33:18.469Z,100
2018-06-01T08:33:44.500Z,100
2018-06-01T08:34:09.913Z,100
2018-06-01T08:34:35.523Z,95
2018-06-01T08:35:00.950Z,95
2018-06-01T08:35:26.493Z,95
2018-06-01T08:35:52.168Z,95
2018-06-01T08:36:17.643Z,95
2018-06-01T08:36:43.169Z,90
2018-06-01T08:37:08.662Z,90
2018-06-01T08:37:34.338Z,85
2018-06-01T08:37:59.882Z,85
2018-06-01T08:38:25.376Z,85
2018-06-01T08:38:50.938Z,85
2018-06-01T08:39:16.412Z,85
2018-06-01T08:39:42.317Z,85
2018-06-01T08:40:07.892Z,85
2018-06-01T08:40:33.431Z,85
2018-06-01T08:40:59.169Z,85
2018-06-01T08:41:24.750Z,85
2018-06-01T08:41:50.246Z,85
2018-06-01T08:42:15.826Z,85
2018-06-01T08:42:41.548Z,85
2018-06-01T08:43:07.104Z,85
2018-06-01T08:43:32.597Z,85
2018-06-01T08:43:58.024Z,85
2018-06-01T08:44:23.464Z,85
2018-06-01T08:44:48.989Z,85
2018-06-01T08:45:14.478Z,85
2018-06-01T08:45:39.924Z,85
2018-06-01T08:46:05.454Z,80
2018-06-01T08:46:31.082Z,80
2018-06-01T08:46:56.473Z,80
2018-06-01T08:47:22.047Z,75
2018-06-01T08:47:47.586Z,75
2018-06-01T08:48:13.066Z,75
2018-06-01T08:48:38.664Z,80
2018-06-01T08:49:04.222Z,80
2018-06-01T08:49:29.822Z,85
2018-06-01T08:49:56.391Z,85
2018-06-01T08:50:21.834Z,85
2018-06-01T08:50:47.461Z,80
2018-06-01T08:51:13.010Z,80
2018-06-01T08:51:38.595Z,75
2018-06-01T08:52:04.116Z,70
2018-06-01T08:52:29.906Z,65
2018-06-01T08:52:55.367Z,60
2018-06-01T08:53:20.917Z,60
2018-06-01T08:53:46.442Z,60
2018-06-01T08:54:11.965Z,55
2018-06-01T08:54:37.583Z,55
2018-06-01T08:55:03.102Z,55
2018-06-01T08:55:28.666Z,55
2018-06-01T08:55:54.286Z,55
2018-06-01T08:56:20.223Z,55
2018-06-01T08:56:45.613Z,55
2018-06-01T08:57:11.330Z,55
2018-06-01T08:57:36.976Z,55
2018-06-01T08:58:02.414Z,55
2018-06-01T08:58:28.035Z,60
2018-06-01T08:58:53.776Z,55
2018-06-01T08:59:19.237Z,55
2018-06-01T08:59:44.883Z,55
2018-06-01T09:00:10.379Z,55
2018-06-01T09:00:35.955Z,55
2018-06-01T09:01:01.450Z,55
2018-06-01T09:01:26.976Z,50
2018-06-01T09:01:52.430Z,50
2018-06-01T09:02:17.993Z,45
2018-06-01T09:02:43.568Z,45
2018-06-01T09:03:08.965Z,45
2018-06-01T09:03:34.490Z,40
2018-06-01T09:03:59.949Z,40
2018-06-01T09:04:25.454Z,35
2018-06-01T09:04:51.039Z,35
2018-06-01T09:05:16.904Z,35
2018-06-01T09:05:42.415Z,35
2018-06-01T09:06:07.908Z,35
2018-06-01T09:06:33.425Z,35
2018-06-01T09:06:58.943Z,35
2018-06-01T09:07:24.482Z,35
2018-06-01T09:07:49.863Z,35
2018-06-01T09:08:15.385Z,35
2018-06-01T09:08:40.790Z,35
2018-06-01T09:09:06.284Z,35
2018-06-01T09:09:31.781Z,35
2018-06-01T09:09:57.309Z,30
2018-06-01T09:10:22.853Z,30
2018-06-01T09:10:48.314Z,30
2018-06-01T09:11:13.735Z,30
2018-06-01T09:11:39.232Z,30
2018-06-01T09:12:04.702Z,30
2018-06-01T09:12:30.185Z,30
2018-06-01T09:12:55.644Z,30
2018-06-01T09:13:21.119Z,30
2018-06-01T09:13:46.568Z,30
2018-06-01T09:14:12.061Z,30
2018-06-01T09:14:37.512Z,30
2018-06-01T09:15:03.006Z,30
2018-06-01T09:15:28.464Z,30
2018-06-01T09:15:53.988Z,30
2018-06-01T09:16:19.510Z,30
2018-06-01T09:16:45.046Z,30
2018-06-01T09:17:10.420Z,30
2018-06-01T09:17:35.880Z,30
2018-06-01T09:18:01.504Z,30
2018-06-01T09:18:27.019Z,30
2018-06-01T09:18:52.473Z,30
2018-06-01T09:19:17.917Z,30
2018-06-01T09:19:43.390Z,30
2018-06-01T09:20:08.872Z,30
2018-06-01T09:20:34.349Z,30
2018-06-01T09:20:59.825Z,35
2018-06-01T09:21:25.303Z,35
2018-06-01T09:21:50.813Z,35
2018-06-01T09:22:16.361Z,35
2018-06-01T09:22:41.803Z,35
2018-06-01T09:23:07.310Z,35
2018-06-01T09:23:32.811Z,35
2018-06-01T09:23:58.290Z,35
2018-06-01T09:24:23.777Z,35
2018-06-01T09:24:49.376Z,35
2018-06-01T09:25:14.862Z,35
2018-06-01T09:25:40.378Z,35
2018-06-01T09:26:05.882Z,35
2018-06-01T09:26:31.400Z,40
2018-06-01T09:26:56.894Z,40
2018-06-01T09:27:22.405Z,40
2018-06-01T09:27:47.925Z,40
2018-06-01T09:28:13.458Z,40
2018-06-01T09:28:38.916Z,40
2018-06-01T09:29:04.407Z,40
2018-06-01T09:29:29.918Z,40
2018-06-01T09:29:55.416Z,40
2018-06-01T09:30:20.914Z,40
2018-06-01T09:30:46.445Z,40
2018-06-01T09:31:11.925Z,45
2018-06-01T09:31:37.428Z,45
2018-06-01T09:33:06.558Z,45
2018-06-01T09:33:32.061Z,45
2018-06-01T09:33:57.553Z,45
2018-06-01T09:34:23.096Z,45
2018-06-01T09:34:48.558Z,45
2018-06-01T09:35:14.065Z,45
2018-06-01T09:35:39.545Z,45
2018-06-01T09:36:05.069Z,45
2018-06-01T09:36:30.617Z,45
2018-06-01T09:36:56.073Z,45
2018-06-01T09:37:21.568Z,50
2018-06-01T09:37:47.030Z,50
2018-06-01T09:38:12.489Z,50
2018-06-01T09:39:21.211Z,50
2018-06-01T09:39:46.724Z,55
2018-06-01T09:40:12.231Z,55
2018-06-01T09:40:37.718Z,55
2018-06-01T09:41:03.232Z,60
2018-06-01T09:41:28.755Z,60
2018-06-01T09:41:54.258Z,60
2018-06-01T09:42:19.754Z,65
2018-06-01T09:42:45.287Z,65
2018-06-01T09:43:10.745Z,70
2018-06-01T09:43:36.253Z,70
2018-06-01T09:44:01.754Z,75
2018-06-01T09:44:27.252Z,75
2018-06-01T09:44:52.764Z,80
2018-06-01T09:45:18.250Z,80
2018-06-01T09:45:43.767Z,85
2018-06-01T09:46:09.251Z,85
2018-06-01T09:46:34.782Z,90
2018-06-01T09:47:00.228Z,90
2018-06-01T09:47:25.755Z,95
2018-06-01T09:47:51.216Z,100
2018-06-01T09:48:16.701Z,100
2018-06-01T09:48:42.232Z,105
2018-06-01T09:49:07.723Z,105
2018-06-01T09:49:33.226Z,110
2018-06-01T09:49:58.708Z,110
2018-06-01T09:50:24.246Z,110
2018-06-01T09:50:49.740Z,115
2018-06-01T09:51:15.239Z,115
2018-06-01T09:52:23.960Z,125
2018-06-01T09:52:49.441Z,130
2018-06-01T09:53:14.933Z,130
2018-06-01T09:53:40.437Z,135
2018-06-01T09:54:05.959Z,140
2018-06-01T09:54:31.436Z,145
2018-06-01T09:54:56.936Z,145
2018-06-01T09:55:22.413Z,145
2018-06-01T09:55:47.929Z,150
2018-06-01T09:56:13.462Z,150
2018-06-01T09:56:38.928Z,150
2018-06-01T09:57:04.434Z,150
2018-06-01T09:57:29.923Z,150
2018-06-01T09:57:55.438Z,150
2018-06-01T09:58:20.926Z,155
2018-06-01T09:58:46.413Z,155
2018-06-01T09:59:11.899Z,160
2018-06-01T09:59:37.439Z,160
2018-06-01T10:00:02.946Z,165
2018-06-01T10:00:28.476Z,175
2018-06-01T10:00:53.966Z,180
2018-06-01T10:01:19.484Z,185
2018-06-01T10:01:44.982Z,185
2018-06-01T10:02:10.468Z,190
2018-06-01T10:02:35.986Z,200
2018-06-01T10:03:01.455Z,205
2018-06-01T10:03:26.981Z,210
2018-06-01T10:03:52.479Z,215
2018-06-01T10:04:17.982Z,220
2018-06-01T10:04:43.461Z,230
2018-06-01T10:05:08.954Z,235
2018-06-01T10:05:34.444Z,240
2018-06-01T10:05:59.921Z,245
2018-06-01T10:06:25.408Z,245
2018-06-01T10:06:50.916Z,250
2018-06-01T10:07:16.383Z,255
2018-06-01T10:07:41.857Z,260
2018-06-01T10:08:07.344Z,260
2018-06-01T10:08:32.857Z,265
2018-06-01T10:08:58.341Z,270
2018-06-01T10:09:23.859Z,275
2018-06-01T10:09:49.338Z,270
2018-06-01T10:10:14.830Z,275
2018-06-01T10:10:40.351Z,270
2018-06-01T10:11:05.863Z,270
2018-06-01T10:11:31.366Z,270
2018-06-01T10:11:56.849Z,275
2018-06-01T10:12:22.349Z,275
2018-06-01T10:12:47.859Z,280